createdAt,value
2022-09-20T00:02:30.256Z,98487.97
2022-09-20T00:07:32.687Z,98478.66
2022-09-20T00:12:35.058Z,98481.25
2022-09-20T00:17:37.505Z,98478.63
2022-09-20T00:22:39.928Z,98474.59
2022-09-20T00:27:42.672Z,98473.31
2022-09-20T00:32:45.097Z,98482.66
2022-09-20T00:37:47.493Z,98483.25
2022-09-20T00:42:50.910Z,98470.38
2022-09-20T00:48:15.754Z,98467.06
2022-09-20T00:53:33.886Z,98469.00
2022-09-20T00:58:42.939Z,98470.69
2022-09-20T01:03:46.787Z,98467.97
2022-09-20T01:08:54.398Z,98466.25
2022-09-20T01:13:57.820Z,98470.97
2022-09-20T01:19:05.293Z,98470.50
2022-09-20T01:24:27.484Z,98474.50
2022-09-20T01:29:44.883Z,98482.31
2022-09-20T01:34:57.544Z,98471.19
2022-09-20T01:40:06.457Z,98463.00
2022-09-20T01:45:27.384Z,98462.78
2022-09-20T01:50:32.946Z,98470.75
2022-09-20T01:55:56.885Z,98465.59
2022-09-20T02:01:37.784Z,98458.06
2022-09-20T02:07:01.205Z,98462.50
2022-09-20T02:12:37.937Z,98463.03
2022-09-20T02:18:13.269Z,98461.63
2022-09-20T02:23:40.239Z,98464.09
2022-09-20T02:29:22.172Z,98461.69
2022-09-20T02:35:05.539Z,98448.22
2022-09-20T02:40:13.449Z,98460.50
2022-09-20T02:45:48.428Z,98463.09
2022-09-20T02:51:04.428Z,98468.22
2022-09-20T02:56:34.564Z,98458.34
2022-09-20T03:01:39.825Z,98463.56
2022-09-20T03:07:06.639Z,98454.13
2022-09-20T03:12:26.417Z,98455.94
2022-09-20T03:18:08.941Z,98473.56
2022-09-20T03:23:27.043Z,98477.34
2022-09-20T03:28:55.236Z,98478.19
2022-09-20T03:34:33.333Z,98474.41
2022-09-20T03:40:06.042Z,98474.91
2022-09-20T03:45:38.656Z,98466.44
2022-09-20T03:50:59.189Z,98472.00
2022-09-20T03:56:19.588Z,98472.97
2022-09-20T04:01:33.326Z,98481.00
2022-09-20T04:06:56.530Z,98487.00
2022-09-20T04:12:40.147Z,98486.31
2022-09-20T04:17:52.265Z,98488.22
2022-09-20T04:22:58.835Z,98490.41
2022-09-20T04:28:08.723Z,98496.03
2022-09-20T04:33:25.246Z,98501.22
2022-09-20T04:38:29.290Z,98505.06
2022-09-20T04:43:52.361Z,98507.88
2022-09-20T04:49:12.559Z,98509.59
2022-09-20T04:54:46.017Z,98514.69
2022-09-20T05:00:12.848Z,98520.88
2022-09-20T05:05:21.195Z,98526.84
2022-09-20T05:10:42.388Z,98526.22
2022-09-20T05:16:06.030Z,98529.41
2022-09-20T05:21:23.227Z,98529.97
2022-09-20T05:27:03.508Z,98525.28
2022-09-20T05:32:39.424Z,98546.63
2022-09-20T05:38:06.144Z,98545.09
2022-09-20T05:43:28.787Z,98538.06
2022-09-20T05:48:46.937Z,98539.66
2022-09-20T05:54:26.273Z,98551.91
2022-09-20T05:59:45.710Z,98549.56
2022-09-20T06:05:14.243Z,98562.16
2022-09-20T06:10:55.712Z,98567.94
2022-09-20T06:16:01.765Z,98565.84
2022-09-20T06:21:23.741Z,98566.09
2022-09-20T06:26:35.742Z,98562.50
2022-09-20T06:31:38.268Z,98559.50
2022-09-20T06:37:04.805Z,98564.72
2022-09-20T06:42:10.626Z,98560.78
2022-09-20T06:47:15.149Z,98580.03
2022-09-20T06:52:22.936Z,98581.19
2022-09-20T06:57:35.996Z,98586.34
2022-09-20T07:02:38.582Z,98587.03
2022-09-20T07:07:41.270Z,98583.72
2022-09-20T07:12:43.725Z,98591.22
2022-09-20T07:17:47.332Z,98598.38
2022-09-20T07:22:49.867Z,98603.88
2022-09-20T07:27:52.388Z,98603.31
2022-09-20T07:32:55.266Z,98617.94
2022-09-20T07:37:58.972Z,98614.19
2022-09-20T07:43:01.167Z,98610.81
2022-09-20T07:48:05.384Z,98612.81
2022-09-20T07:53:07.775Z,98613.09
2022-09-20T07:58:10.144Z,98626.91
2022-09-20T08:03:12.547Z,98620.00
2022-09-20T08:08:15.315Z,98627.09
2022-09-20T08:18:51.528Z,98637.59
2022-09-20T08:23:54.370Z,98643.88
2022-09-20T08:28:59.012Z,98636.41
2022-09-20T08:34:04.882Z,98643.72
2022-09-20T08:44:36.430Z,98643.91
2022-09-20T08:49:40.540Z,98641.81
2022-09-20T08:54:43.652Z,98635.22
2022-09-20T08:59:46.644Z,98637.44
2022-09-20T09:04:51.570Z,98629.94
2022-09-20T09:09:56.226Z,98633.34
2022-09-20T09:15:24.006Z,98632.41
2022-09-20T09:20:26.879Z,98630.22
2022-09-20T09:25:38.097Z,98636.84
2022-09-20T09:30:43.800Z,98633.56
2022-09-20T09:35:54.259Z,98627.00
2022-09-20T09:41:02.391Z,98635.91
2022-09-20T09:46:23.583Z,98622.13
2022-09-20T09:51:26.589Z,98625.16
2022-09-20T09:56:49.671Z,98631.78
2022-09-20T10:02:13.044Z,98628.41
2022-09-20T10:07:21.804Z,98635.78
2022-09-20T10:12:48.019Z,98637.25
2022-09-20T10:17:57.591Z,98631.53
2022-09-20T10:28:35.332Z,98622.41
2022-09-20T10:33:50.732Z,98618.78
2022-09-20T10:39:14.916Z,98616.28
2022-09-20T10:44:39.467Z,98616.97
2022-09-20T10:50:03.160Z,98622.44
2022-09-20T10:55:30.534Z,98624.00
2022-09-20T11:01:00.815Z,98626.28
2022-09-20T11:06:09.119Z,98634.09
2022-09-20T11:11:20.784Z,98625.50
2022-09-20T11:16:41.925Z,98622.97
2022-09-20T11:21:50.811Z,98607.31
2022-09-20T11:27:04.257Z,98609.13
2022-09-20T11:32:28.512Z,98615.75
2022-09-20T11:37:40.973Z,98611.69
2022-09-20T11:42:44.029Z,98609.00
2022-09-20T11:47:55.526Z,98614.25
2022-09-20T11:53:17.533Z,98610.28
2022-09-20T11:58:22.551Z,98611.19
2022-09-20T12:03:40.433Z,98605.75
2022-09-20T12:08:42.910Z,98596.97
2022-09-20T12:13:57.969Z,98592.91
2022-09-20T12:19:00.343Z,98583.94
2022-09-20T12:24:18.126Z,98573.34
2022-09-20T12:29:33.076Z,98580.03
2022-09-20T12:34:36.925Z,98573.97
2022-09-20T12:39:50.239Z,98569.56
2022-09-20T12:45:04.751Z,98568.66
2022-09-20T12:50:34.207Z,98572.22
2022-09-20T12:55:50.053Z,98570.56
2022-09-20T13:01:04.488Z,98566.91
2022-09-20T13:06:06.999Z,98570.06
2022-09-20T13:11:23.865Z,98567.00
2022-09-20T13:16:37.539Z,98565.59
2022-09-20T13:21:47.581Z,98561.22
2022-09-20T13:26:52.086Z,98567.66
2022-09-20T13:31:56.434Z,98568.09
2022-09-20T13:36:59.482Z,98565.72
2022-09-20T13:42:07.750Z,98554.09
2022-09-20T13:47:24.967Z,98561.84
2022-09-20T13:52:32.290Z,98565.53
2022-09-20T13:57:35.821Z,98569.38
2022-09-20T14:02:39.866Z,98569.13
2022-09-20T14:07:46.996Z,98579.78
2022-09-20T14:12:50.083Z,98579.94
2022-09-20T14:17:54.526Z,98588.53
2022-09-20T14:22:59.249Z,98580.72
2022-09-20T14:28:18.643Z,98594.63
2022-09-20T14:33:21.868Z,98591.25
2022-09-20T14:38:27.109Z,98590.63
2022-09-20T14:43:33.871Z,98580.16
2022-09-20T14:48:41.998Z,98582.03
2022-09-20T14:53:46.824Z,98584.44
2022-09-20T14:59:25.733Z,98572.81
2022-09-20T15:04:29.360Z,98568.81
2022-09-20T15:09:31.938Z,98581.13
2022-09-20T15:14:37.918Z,98579.03
2022-09-20T15:19:40.588Z,98579.97
2022-09-20T15:24:43.694Z,98578.41
2022-09-20T15:29:46.437Z,98568.63
2022-09-20T15:34:48.800Z,98575.50
2022-09-20T15:39:52.109Z,98572.34
2022-09-20T15:44:54.614Z,98569.94
2022-09-20T15:49:57.823Z,98577.78
2022-09-20T15:55:00.776Z,98571.00
2022-09-20T16:00:03.610Z,98574.78
2022-09-20T16:05:11.171Z,98575.09
2022-09-20T16:10:13.575Z,98576.66
2022-09-20T16:15:15.989Z,98581.41
2022-09-20T16:20:18.501Z,98574.63
2022-09-20T16:25:20.985Z,98572.47
2022-09-20T16:30:23.369Z,98580.31
2022-09-20T16:35:26.189Z,98587.84
2022-09-20T16:40:28.722Z,98596.91
2022-09-20T16:45:31.170Z,98598.25
2022-09-20T16:50:33.585Z,98603.44
2022-09-20T16:55:35.965Z,98610.34
2022-09-20T17:00:38.778Z,98611.88
2022-09-20T17:05:42.483Z,98610.34
2022-09-20T17:10:45.616Z,98612.97
2022-09-20T17:15:48.427Z,98615.47
2022-09-20T17:20:50.827Z,98620.94
2022-09-20T17:26:06.946Z,98622.75
2022-09-20T17:31:15.543Z,98624.09
2022-09-20T17:36:21.377Z,98637.16
2022-09-20T17:41:24.983Z,98642.09
2022-09-20T17:46:30.504Z,98640.38
2022-09-20T17:51:53.392Z,98645.69
2022-09-20T17:56:56.406Z,98649.94
2022-09-20T18:01:58.929Z,98652.34
2022-09-20T18:07:03.599Z,98656.38
2022-09-20T18:12:06.844Z,98662.63
2022-09-20T18:17:09.287Z,98676.09
2022-09-20T18:22:11.713Z,98682.16
2022-09-20T18:27:14.128Z,98683.56
2022-09-20T18:32:17.163Z,98686.16
2022-09-20T18:37:19.573Z,98694.41
2022-09-20T18:42:21.946Z,98701.69
2022-09-20T18:47:24.721Z,98696.66
2022-09-20T18:52:27.222Z,98710.53
2022-09-20T18:57:29.991Z,98717.31
2022-09-20T19:02:58.042Z,98726.56
2022-09-20T19:08:38.381Z,98728.50
2022-09-20T19:13:54.801Z,98733.91
2022-09-20T19:19:04.171Z,98739.50
2022-09-20T19:24:37.445Z,98752.31
2022-09-20T19:29:41.067Z,98755.00
2022-09-20T19:34:45.162Z,98756.72
2022-09-20T19:40:24.434Z,98762.47
2022-09-20T19:45:48.111Z,98772.81
2022-09-20T19:50:52.629Z,98765.88
2022-09-20T19:56:03.515Z,98777.72
2022-09-20T20:01:06.271Z,98771.50
2022-09-20T20:06:35.153Z,98768.34
2022-09-20T20:12:07.964Z,98772.25
2022-09-20T20:17:33.918Z,98779.63
2022-09-20T20:23:14.025Z,98778.59
2022-09-20T20:28:16.644Z,98771.56
2022-09-20T20:33:19.347Z,98781.41
2022-09-20T20:38:26.472Z,98785.69
2022-09-20T20:43:29.970Z,98780.25
2022-09-20T20:48:32.674Z,98784.22
2022-09-20T20:53:54.874Z,98787.63
2022-09-20T20:59:04.539Z,98788.25
2022-09-20T21:04:08.315Z,98783.94
2022-09-20T21:09:12.239Z,98773.88
2022-09-20T21:14:15.898Z,98786.03
2022-09-20T21:19:18.948Z,98788.81
2022-09-20T21:24:21.372Z,98785.91
2022-09-20T21:29:23.848Z,98786.41
2022-09-20T21:34:26.467Z,98776.44
2022-09-20T21:39:28.864Z,98784.19
2022-09-20T21:44:32.463Z,98788.66
2022-09-20T21:49:35.350Z,98792.34
2022-09-20T21:54:37.712Z,98796.19
2022-09-20T21:59:40.517Z,98786.94
2022-09-20T22:04:42.908Z,98794.06
2022-09-20T22:09:45.343Z,98790.19
2022-09-20T22:14:47.713Z,98790.38
2022-09-20T22:19:50.103Z,98795.75
2022-09-20T22:24:52.479Z,98776.09
2022-09-20T22:29:54.902Z,98785.13
2022-09-20T22:34:59.428Z,98788.84
2022-09-20T22:40:01.973Z,98781.94
2022-09-20T22:45:04.665Z,98785.66
2022-09-20T22:50:07.524Z,98779.78
2022-09-20T22:55:10.261Z,98779.38
2022-09-20T23:00:13.196Z,98779.63
2022-09-20T23:05:17.044Z,98776.47
2022-09-20T23:10:19.482Z,98777.75
2022-09-20T23:15:21.928Z,98781.03
2022-09-20T23:20:25.043Z,98778.34
2022-09-20T23:25:27.510Z,98786.75
2022-09-20T23:30:32.052Z,98779.75
2022-09-20T23:35:34.464Z,98786.34
2022-09-20T23:40:36.969Z,98788.25
2022-09-20T23:45:41.463Z,98795.59
2022-09-20T23:50:44.218Z,98791.06
2022-09-20T23:55:46.609Z,98797.81
